createdAt,value
2017-10-23T00:00:54.262Z,10.80
2017-10-23T00:03:21.723Z,10.70
2017-10-23T00:05:50.338Z,10.80
2017-10-23T00:08:17.798Z,10.80
2017-10-23T00:10:45.259Z,10.70
2017-10-23T00:13:13.256Z,10.80
2017-10-23T00:15:40.731Z,10.80
2017-10-23T00:18:08.200Z,10.70
2017-10-23T00:20:35.656Z,10.80
2017-10-23T00:23:03.123Z,10.90
2017-10-23T00:25:31.347Z,11.00
2017-10-23T00:27:58.816Z,10.90
2017-10-23T00:30:26.285Z,10.90
2017-10-23T00:32:53.747Z,10.90
2017-10-23T00:35:21.208Z,10.90
2017-10-23T00:37:48.672Z,10.90
2017-10-23T00:40:16.135Z,10.80
2017-10-23T00:42:43.593Z,10.80
2017-10-23T00:45:11.062Z,10.80
2017-10-23T00:47:39.298Z,10.80
2017-10-23T00:50:06.765Z,10.80
2017-10-23T00:52:34.223Z,10.70
2017-10-23T00:55:01.708Z,10.70
2017-10-23T00:57:29.163Z,10.70
2017-10-23T00:59:56.640Z,10.70
2017-10-23T01:02:24.864Z,10.70
2017-10-23T01:04:52.335Z,10.70
2017-10-23T01:07:19.808Z,10.70
2017-10-23T01:09:47.267Z,10.70
2017-10-23T01:12:14.739Z,10.70
2017-10-23T01:14:42.974Z,10.70
2017-10-23T01:17:10.453Z,10.50
2017-10-23T01:19:37.919Z,10.70
2017-10-23T01:22:05.387Z,10.60
2017-10-23T01:24:33.623Z,10.50
2017-10-23T01:27:01.083Z,10.50
2017-10-23T01:29:28.546Z,10.50
2017-10-23T01:31:56.006Z,10.50
2017-10-23T01:34:23.525Z,10.50
2017-10-23T01:36:50.983Z,10.40
2017-10-23T01:39:18.467Z,10.40
2017-10-23T01:41:45.939Z,10.40
2017-10-23T01:44:13.400Z,10.30
2017-10-23T01:46:40.965Z,10.30
2017-10-23T01:49:08.448Z,10.30
2017-10-23T01:51:36.693Z,10.30
2017-10-23T01:54:04.268Z,10.50
2017-10-23T01:56:31.727Z,10.20
2017-10-23T01:58:59.182Z,10.20
2017-10-23T02:01:26.649Z,10.20
2017-10-23T02:03:54.107Z,10.20
2017-10-23T02:06:21.575Z,10.20
2017-10-23T02:08:49.815Z,10.30
2017-10-23T02:11:17.372Z,10.40
2017-10-23T02:13:44.838Z,10.30
2017-10-23T02:16:12.303Z,10.30
2017-10-23T02:18:39.797Z,10.40
2017-10-23T02:21:08.047Z,10.40
2017-10-23T02:23:35.501Z,10.40
2017-10-23T02:26:02.967Z,10.40
2017-10-23T02:28:30.515Z,10.40
2017-10-23T02:31:12.496Z,10.40
2017-10-23T02:33:39.971Z,10.40
2017-10-23T02:36:07.438Z,10.40
2017-10-23T02:38:34.899Z,10.40
2017-10-23T02:41:02.461Z,10.50
2017-10-23T02:43:29.928Z,10.50
2017-10-23T02:45:58.174Z,10.60
2017-10-23T02:48:25.652Z,10.80
2017-10-23T02:50:53.140Z,10.70
2017-10-23T02:53:21.360Z,10.70
2017-10-23T02:55:48.820Z,10.70
2017-10-23T02:58:16.287Z,10.70
2017-10-23T03:00:43.756Z,10.70
2017-10-23T03:03:11.228Z,10.60
2017-10-23T03:05:38.691Z,10.50
2017-10-23T03:08:06.916Z,10.40
2017-10-23T03:10:34.372Z,10.40
2017-10-23T03:13:01.844Z,10.40
2017-10-23T03:15:29.299Z,10.40
2017-10-23T03:17:56.866Z,10.40
2017-10-23T03:20:24.323Z,10.40
2017-10-23T03:22:51.785Z,10.40
2017-10-23T03:25:19.239Z,10.50
2017-10-23T03:27:46.702Z,10.50
2017-10-23T03:30:14.160Z,10.60
2017-10-23T03:32:41.624Z,10.50
2017-10-23T03:35:09.083Z,10.50
2017-10-23T03:37:37.348Z,10.50
2017-10-23T03:40:04.803Z,10.30
2017-10-23T03:42:32.260Z,10.50
2017-10-23T03:44:59.738Z,10.50
2017-10-23T03:47:27.182Z,10.50
2017-10-23T03:49:54.646Z,10.60
2017-10-23T03:52:22.106Z,10.60
2017-10-23T03:54:49.581Z,10.50
2017-10-23T03:57:17.032Z,10.60
2017-10-23T03:59:44.586Z,10.60
2017-10-23T04:02:12.044Z,10.60
2017-10-23T04:04:39.526Z,10.60
2017-10-23T04:07:07.755Z,10.60
2017-10-23T04:09:35.222Z,10.50
2017-10-23T04:12:02.676Z,10.60
2017-10-23T04:14:30.237Z,10.70
2017-10-23T04:16:57.811Z,10.70
2017-10-23T04:19:25.276Z,10.70
2017-10-23T04:21:52.736Z,10.60
2017-10-23T04:24:20.963Z,10.60
2017-10-23T04:26:48.428Z,10.60
2017-10-23T04:29:15.925Z,10.60
2017-10-23T04:31:43.399Z,10.70
2017-10-23T04:34:11.670Z,10.60
2017-10-23T04:36:39.127Z,10.50
2017-10-23T04:39:06.607Z,10.50
2017-10-23T04:41:34.846Z,10.40
2017-10-23T04:44:02.309Z,10.40
2017-10-23T04:46:29.775Z,10.40
2017-10-23T04:48:57.343Z,10.40
2017-10-23T04:51:25.569Z,10.40
2017-10-23T04:53:53.018Z,10.50
2017-10-23T04:56:20.514Z,10.40
2017-10-23T04:58:47.979Z,10.40
2017-10-23T05:01:15.456Z,10.40
2017-10-23T05:03:43.712Z,10.40
2017-10-23T05:06:11.162Z,10.70
2017-10-23T05:08:38.632Z,10.40
2017-10-23T05:11:06.183Z,10.40
2017-10-23T05:13:33.651Z,10.40
2017-10-23T05:16:01.175Z,10.40
2017-10-23T05:18:28.644Z,10.40
2017-10-23T05:20:56.126Z,10.40
2017-10-23T05:23:23.598Z,10.40
2017-10-23T05:25:51.831Z,10.50
2017-10-23T05:28:19.290Z,10.50
2017-10-23T05:30:46.758Z,10.50
2017-10-23T05:33:14.241Z,10.50
2017-10-23T05:35:41.723Z,10.50
2017-10-23T05:38:09.951Z,10.50
2017-10-23T05:40:37.433Z,10.50
2017-10-23T05:43:04.987Z,10.50
2017-10-23T05:45:32.448Z,10.50
2017-10-23T05:47:59.925Z,10.40
2017-10-23T05:50:28.150Z,10.40
2017-10-23T05:52:55.631Z,10.40
2017-10-23T05:55:23.092Z,10.40
2017-10-23T05:57:50.560Z,10.40
2017-10-23T06:00:19.522Z,10.30
2017-10-23T06:02:47.007Z,10.30
2017-10-23T06:05:14.450Z,10.40
2017-10-23T06:07:41.921Z,10.40
2017-10-23T06:10:09.378Z,10.30
2017-10-23T06:12:36.856Z,10.30
2017-10-23T06:15:05.083Z,10.30
2017-10-23T06:17:32.551Z,10.50
2017-10-23T06:20:00.013Z,10.30
2017-10-23T06:22:27.480Z,10.40
2017-10-23T06:24:54.939Z,10.40
2017-10-23T06:27:22.405Z,10.50
2017-10-23T06:29:51.372Z,10.80
2017-10-23T06:32:18.851Z,10.30
2017-10-23T06:34:46.326Z,10.50
2017-10-23T06:37:13.811Z,10.50
2017-10-23T06:39:41.279Z,10.50
2017-10-23T06:42:08.771Z,10.50
2017-10-23T06:44:36.326Z,10.50
2017-10-23T06:47:03.782Z,10.50
2017-10-23T06:49:31.251Z,10.50
2017-10-23T06:51:58.711Z,10.50
2017-10-23T06:54:26.270Z,10.50
2017-10-23T06:56:53.735Z,10.50
2017-10-23T06:59:21.199Z,10.60
2017-10-23T07:01:48.763Z,10.60
2017-10-23T07:04:16.240Z,10.60
2017-10-23T07:06:44.775Z,10.50
2017-10-23T07:09:12.261Z,10.60
2017-10-23T07:11:39.724Z,10.50
2017-10-23T07:14:07.200Z,10.50
2017-10-23T07:16:35.422Z,10.60
2017-10-23T07:19:02.908Z,10.70
2017-10-23T07:21:30.429Z,10.60
2017-10-23T07:23:57.916Z,10.60
2017-10-23T07:26:25.366Z,10.60
2017-10-23T07:28:52.836Z,10.60
2017-10-23T07:31:20.298Z,10.60
2017-10-23T07:33:47.798Z,10.70
2017-10-23T07:36:16.017Z,10.70
2017-10-23T07:38:43.514Z,10.80
2017-10-23T07:41:11.747Z,10.80
2017-10-23T07:43:39.204Z,10.90
2017-10-23T07:46:06.678Z,10.80
2017-10-23T07:48:34.140Z,10.80
2017-10-23T07:51:01.612Z,10.80
2017-10-23T07:53:29.139Z,10.80
2017-10-23T07:55:56.603Z,10.90
2017-10-23T07:58:24.086Z,10.90
2017-10-23T08:00:51.551Z,11.10
2017-10-23T08:03:19.041Z,11.20
2017-10-23T08:05:46.509Z,11.20
2017-10-23T08:08:13.964Z,11.30
2017-10-23T08:10:41.432Z,11.30
2017-10-23T08:13:08.890Z,11.40
2017-10-23T08:15:36.359Z,11.40
2017-10-23T08:18:03.830Z,11.40
2017-10-23T08:20:31.308Z,11.40
2017-10-23T08:22:58.809Z,11.30
2017-10-23T08:25:26.267Z,11.30
2017-10-23T08:27:53.751Z,11.30
2017-10-23T08:30:21.230Z,11.30
2017-10-23T08:32:48.695Z,11.30
2017-10-23T08:35:16.162Z,11.20
2017-10-23T08:37:43.634Z,11.20
2017-10-23T08:40:11.873Z,11.30
2017-10-23T08:42:39.330Z,11.30
2017-10-23T08:45:07.587Z,11.40
2017-10-23T08:47:35.058Z,11.50
2017-10-23T08:50:02.551Z,11.70
2017-10-23T08:52:30.007Z,11.80
2017-10-23T08:54:57.462Z,11.90
2017-10-23T08:57:24.939Z,11.90
2017-10-23T08:59:53.158Z,11.60
2017-10-23T09:02:20.639Z,11.50
2017-10-23T09:04:48.100Z,11.60
2017-10-23T09:07:16.330Z,11.50
2017-10-23T09:09:43.790Z,11.50
2017-10-23T09:12:11.259Z,11.50
2017-10-23T09:14:38.733Z,11.60
2017-10-23T09:17:06.412Z,11.60
2017-10-23T09:19:33.884Z,11.70
2017-10-23T09:22:01.352Z,11.70
2017-10-23T09:24:28.813Z,11.70
2017-10-23T09:26:56.278Z,11.80
2017-10-23T09:29:24.504Z,11.80
2017-10-23T09:31:51.977Z,11.80
2017-10-23T09:34:19.419Z,11.70
2017-10-23T09:36:46.886Z,11.70
2017-10-23T09:39:14.343Z,11.70
2017-10-23T09:41:41.823Z,11.70
2017-10-23T09:44:09.283Z,11.70
2017-10-23T09:46:36.738Z,11.50
2017-10-23T09:49:04.216Z,11.50
2017-10-23T09:51:31.679Z,11.40
2017-10-23T09:53:59.914Z,11.50
2017-10-23T09:56:27.375Z,11.50
2017-10-23T09:58:54.848Z,11.50
2017-10-23T10:01:22.303Z,11.40
2017-10-23T10:03:49.778Z,11.30
2017-10-23T10:06:17.277Z,11.30
2017-10-23T10:08:44.744Z,11.40
2017-10-23T10:11:12.198Z,11.40
2017-10-23T10:13:39.711Z,11.60
2017-10-23T10:16:07.167Z,11.60
2017-10-23T10:18:34.639Z,11.70
2017-10-23T10:21:02.891Z,11.90
2017-10-23T10:23:30.370Z,11.90
2017-10-23T10:25:58.586Z,11.90
2017-10-23T10:28:26.068Z,11.90
2017-10-23T10:30:53.550Z,12.00
2017-10-23T10:33:21.802Z,11.90
2017-10-23T10:35:49.387Z,11.90
2017-10-23T10:38:16.855Z,11.90
2017-10-23T10:40:45.092Z,12.00
2017-10-23T10:43:12.564Z,12.00
2017-10-23T10:45:40.029Z,11.90
2017-10-23T10:48:07.492Z,11.90
2017-10-23T10:50:34.959Z,12.00
2017-10-23T10:53:02.429Z,12.00
2017-10-23T10:55:30.661Z,12.00
2017-10-23T10:57:58.127Z,12.00
2017-10-23T11:00:25.659Z,12.10
2017-10-23T11:02:53.133Z,12.10
2017-10-23T11:05:20.599Z,12.20
2017-10-23T11:07:48.951Z,12.30
2017-10-23T11:10:16.424Z,12.30
2017-10-23T11:12:43.910Z,12.30
2017-10-23T11:15:11.371Z,12.20
2017-10-23T11:17:38.830Z,12.00
2017-10-23T11:20:06.303Z,12.00
2017-10-23T11:22:34.538Z,12.10
2017-10-23T11:25:02.786Z,12.10
2017-10-23T11:27:30.236Z,12.10
2017-10-23T11:29:57.716Z,12.10
2017-10-23T11:32:25.178Z,12.10
2017-10-23T11:34:52.655Z,12.20
2017-10-23T11:37:20.120Z,12.30
2017-10-23T11:39:47.591Z,12.40
2017-10-23T11:42:15.058Z,12.60
2017-10-23T11:44:42.524Z,12.70
2017-10-23T11:47:10.750Z,12.60
2017-10-23T11:49:38.228Z,12.60
2017-10-23T11:52:05.704Z,12.70
2017-10-23T11:54:33.176Z,12.70
2017-10-23T11:57:01.437Z,12.80
2017-10-23T11:59:28.900Z,12.80
2017-10-23T12:01:56.367Z,12.60
2017-10-23T12:04:24.611Z,12.70
2017-10-23T12:06:52.075Z,12.60
2017-10-23T12:09:19.549Z,12.60
2017-10-23T12:11:47.007Z,12.60
2017-10-23T12:14:14.473Z,12.60
2017-10-23T12:16:42.704Z,12.90
2017-10-23T12:19:10.184Z,12.90
2017-10-23T12:21:37.643Z,12.80
2017-10-23T12:24:05.107Z,12.80
2017-10-23T12:26:32.605Z,12.80
2017-10-23T12:29:00.835Z,12.70
2017-10-23T12:31:28.405Z,12.70
2017-10-23T12:33:56.639Z,12.50
2017-10-23T12:36:24.102Z,12.50
2017-10-23T12:38:51.582Z,12.60
2017-10-23T12:41:19.051Z,12.60
2017-10-23T12:43:46.522Z,12.50
2017-10-23T12:46:13.994Z,12.50
2017-10-23T12:48:42.228Z,12.50
2017-10-23T12:51:09.707Z,12.50
2017-10-23T12:53:38.679Z,12.50
2017-10-23T12:56:06.153Z,12.50
2017-10-23T12:58:33.716Z,12.40
2017-10-23T13:01:02.699Z,12.40
2017-10-23T13:03:30.158Z,12.40
2017-10-23T13:05:57.632Z,12.40
2017-10-23T13:08:25.862Z,12.50
2017-10-23T13:10:53.362Z,12.50
2017-10-23T13:13:20.827Z,12.50
2017-10-23T13:15:48.299Z,12.40
2017-10-23T13:18:16.531Z,12.40
2017-10-23T13:20:44.017Z,12.40
2017-10-23T13:23:12.777Z,12.60
2017-10-23T13:25:40.243Z,12.60
2017-10-23T13:28:07.717Z,12.70
2017-10-23T13:30:35.235Z,12.60
2017-10-23T13:33:02.692Z,12.60
2017-10-23T13:35:30.158Z,12.70
2017-10-23T13:37:57.757Z,12.70
2017-10-23T13:40:25.235Z,12.70
2017-10-23T13:42:53.507Z,12.60
2017-10-23T13:45:20.959Z,12.60
2017-10-23T13:47:48.435Z,12.50
2017-10-23T13:50:16.646Z,12.50
2017-10-23T13:52:44.124Z,12.50
2017-10-23T13:55:11.589Z,12.50
2017-10-23T13:57:39.165Z,12.50
2017-10-23T14:00:06.716Z,12.50
2017-10-23T14:02:34.340Z,12.40
2017-10-23T14:05:01.842Z,12.50
2017-10-23T14:07:29.322Z,12.50
2017-10-23T14:09:57.557Z,12.40
2017-10-23T14:12:25.034Z,12.40
2017-10-23T14:14:52.492Z,12.30
2017-10-23T14:17:20.042Z,12.30
2017-10-23T14:19:47.511Z,12.30
2017-10-23T14:22:14.972Z,12.20
2017-10-23T14:24:43.204Z,12.20
2017-10-23T14:27:14.043Z,12.10
2017-10-23T14:29:41.499Z,12.10
2017-10-23T14:32:08.968Z,12.10
2017-10-23T14:34:36.439Z,12.00
2017-10-23T14:37:03.916Z,11.90
2017-10-23T14:39:31.374Z,11.80
2017-10-23T14:41:58.858Z,11.70
2017-10-23T14:44:27.075Z,11.60
2017-10-23T14:46:54.551Z,11.60
2017-10-23T14:49:22.015Z,11.60
2017-10-23T14:51:49.481Z,11.60
2017-10-23T14:54:17.043Z,11.50
2017-10-23T14:56:44.614Z,11.50
2017-10-23T14:59:12.083Z,11.40
2017-10-23T15:01:40.329Z,11.40
2017-10-23T15:04:07.886Z,11.40
2017-10-23T15:06:35.425Z,11.40
2017-10-23T15:09:02.895Z,11.40
2017-10-23T15:11:30.346Z,11.40
2017-10-23T15:13:57.826Z,11.40
2017-10-23T15:16:26.055Z,11.40
2017-10-23T15:18:53.527Z,11.40
2017-10-23T15:21:21.023Z,11.40
2017-10-23T15:23:48.496Z,11.40
2017-10-23T15:26:15.968Z,11.50
2017-10-23T15:28:44.204Z,11.50
2017-10-23T15:31:11.679Z,11.50
2017-10-23T15:33:39.369Z,11.50
2017-10-23T15:36:06.871Z,11.50
2017-10-23T15:38:34.371Z,11.50
2017-10-23T15:41:01.835Z,11.50
2017-10-23T15:43:29.370Z,11.40
2017-10-23T15:45:56.869Z,11.40
2017-10-23T15:48:24.411Z,11.40
2017-10-23T15:50:51.879Z,11.40
2017-10-23T15:53:20.117Z,11.40
2017-10-23T15:55:47.898Z,11.30
2017-10-23T15:58:15.356Z,11.40
2017-10-23T16:00:43.592Z,11.40
2017-10-23T16:03:11.049Z,11.30
2017-10-23T16:05:38.515Z,11.30
2017-10-23T16:08:05.980Z,11.30
2017-10-23T16:10:33.451Z,11.30
2017-10-23T16:13:00.908Z,11.20
2017-10-23T16:15:28.378Z,11.20
2017-10-23T16:17:55.833Z,11.10
2017-10-23T16:20:23.300Z,11.10
2017-10-23T16:22:52.288Z,11.00
2017-10-23T16:25:19.758Z,11.00
2017-10-23T16:27:47.304Z,11.00
2017-10-23T16:30:14.783Z,11.00
2017-10-23T16:32:43.011Z,11.00
2017-10-23T16:35:10.486Z,11.10
2017-10-23T16:37:37.947Z,10.90
2017-10-23T16:40:05.415Z,10.90
2017-10-23T16:42:32.888Z,10.90
2017-10-23T16:48:06.610Z,11.00
2017-10-23T16:50:34.867Z,11.00
2017-10-23T16:53:02.314Z,11.10
2017-10-23T16:55:29.788Z,11.00
2017-10-23T16:57:57.342Z,11.00
2017-10-23T17:00:24.827Z,11.00
2017-10-23T17:02:52.296Z,11.00
2017-10-23T17:05:20.544Z,11.00
2017-10-23T17:07:48.107Z,11.10
2017-10-23T17:10:15.558Z,10.90
2017-10-23T17:12:43.038Z,10.90
2017-10-23T17:15:10.507Z,10.90
2017-10-23T17:20:32.566Z,11.00
2017-10-23T17:23:00.929Z,11.00
2017-10-23T17:25:28.470Z,11.00
2017-10-23T17:27:55.943Z,10.90
2017-10-23T17:30:23.407Z,10.90
2017-10-23T17:32:50.886Z,10.80
2017-10-23T17:35:18.368Z,10.80
2017-10-23T17:37:45.839Z,10.80
2017-10-23T17:40:13.318Z,10.80
2017-10-23T17:42:40.876Z,10.80
2017-10-23T17:45:08.435Z,10.90
2017-10-23T17:47:35.902Z,10.90
2017-10-23T17:50:03.463Z,10.90
2017-10-23T17:52:30.914Z,10.90
2017-10-23T17:54:58.390Z,10.90
2017-10-23T17:57:26.631Z,11.00
2017-10-23T17:59:54.108Z,11.00
2017-10-23T18:02:21.682Z,11.10
2017-10-23T18:04:49.140Z,11.10
2017-10-23T18:07:16.630Z,11.10
2017-10-23T18:09:44.095Z,11.20
2017-10-23T18:12:11.553Z,11.20
2017-10-23T18:14:39.072Z,11.30
2017-10-23T18:17:07.295Z,11.20
2017-10-23T18:19:34.808Z,11.30
2017-10-23T18:22:02.308Z,11.20
2017-10-23T18:24:29.820Z,11.20
2017-10-23T18:26:57.269Z,11.30
2017-10-23T18:29:24.735Z,11.30
2017-10-23T18:31:52.182Z,11.30
2017-10-23T18:34:19.672Z,11.30
2017-10-23T18:36:47.890Z,11.30
2017-10-23T18:39:15.367Z,11.20
2017-10-23T18:41:42.829Z,11.30
2017-10-23T18:44:10.297Z,11.30
2017-10-23T18:46:37.746Z,11.30
2017-10-23T18:49:05.224Z,11.30
2017-10-23T18:51:32.692Z,11.20
2017-10-23T18:54:00.163Z,11.30
2017-10-23T18:56:28.396Z,11.30
2017-10-23T18:58:55.875Z,11.30
2017-10-23T19:01:23.343Z,11.30
2017-10-23T19:03:50.815Z,11.30
2017-10-23T19:06:19.038Z,11.40
2017-10-23T19:08:46.506Z,11.40
2017-10-23T19:24:24.959Z,11.60
2017-10-23T19:26:53.175Z,11.70
2017-10-23T19:29:20.638Z,11.70
2017-10-23T19:31:48.864Z,11.60
2017-10-23T19:34:16.347Z,11.60
2017-10-23T19:36:43.824Z,11.60
2017-10-23T19:39:11.281Z,11.70
2017-10-23T19:41:38.754Z,11.70
2017-10-23T19:44:06.229Z,11.70
2017-10-23T19:46:33.729Z,11.70
2017-10-23T19:49:01.201Z,11.70
2017-10-23T19:51:28.698Z,11.70
2017-10-23T19:53:56.160Z,11.70
2017-10-23T19:56:23.642Z,11.80
2017-10-23T19:58:51.870Z,11.90
2017-10-23T20:01:19.356Z,11.90
2017-10-23T20:03:46.836Z,11.90
2017-10-23T20:06:15.075Z,12.00
2017-10-23T20:08:42.723Z,11.90
2017-10-23T20:11:10.294Z,12.00
2017-10-23T20:13:37.761Z,12.00
2017-10-23T20:16:05.230Z,12.00
2017-10-23T20:18:32.751Z,11.90
2017-10-23T20:21:00.210Z,11.90
2017-10-23T20:23:27.687Z,12.00
2017-10-23T20:25:55.186Z,11.90
2017-10-23T20:28:23.410Z,11.70
2017-10-23T20:30:50.874Z,11.70
2017-10-23T20:33:18.358Z,11.70
2017-10-23T20:35:45.820Z,11.70
2017-10-23T20:38:13.291Z,11.70
2017-10-23T20:40:41.523Z,11.80
2017-10-23T20:43:09.006Z,11.80
2017-10-23T20:45:36.490Z,11.90
2017-10-23T20:48:04.726Z,11.90
2017-10-23T20:50:32.201Z,11.90
2017-10-23T20:52:59.663Z,11.90
2017-10-23T20:55:27.143Z,12.00
2017-10-23T20:57:55.375Z,11.90
2017-10-23T21:00:22.848Z,11.90
2017-10-23T21:02:50.316Z,12.00
2017-10-23T21:05:17.798Z,11.90
2017-10-23T21:07:46.029Z,11.80
2017-10-23T21:10:13.496Z,11.80
2017-10-23T21:12:40.967Z,11.80
2017-10-23T21:15:08.458Z,11.90
2017-10-23T21:17:36.680Z,12.00
2017-10-23T21:20:04.147Z,12.00
2017-10-23T21:22:31.624Z,12.00
2017-10-23T21:24:59.078Z,12.10
2017-10-23T21:27:26.556Z,12.10
2017-10-23T21:29:54.794Z,12.10
2017-10-23T21:32:22.254Z,12.10
2017-10-23T21:34:49.731Z,12.10
2017-10-23T21:37:17.210Z,12.10
2017-10-23T21:39:45.438Z,12.10
2017-10-23T21:42:12.898Z,12.10
2017-10-23T21:44:40.367Z,12.00
2017-10-23T21:47:10.766Z,12.00
2017-10-23T21:49:38.234Z,12.00
2017-10-23T21:52:05.694Z,12.00
2017-10-23T21:54:33.190Z,11.90
2017-10-23T21:57:00.653Z,11.90
2017-10-23T21:59:28.886Z,12.10
2017-10-23T22:01:56.339Z,12.00
2017-10-23T22:04:23.820Z,12.00
2017-10-23T22:06:51.267Z,12.00
2017-10-23T22:09:18.764Z,12.00
2017-10-23T22:11:46.994Z,12.00
2017-10-23T22:14:14.453Z,12.00
2017-10-23T22:16:41.950Z,12.10
2017-10-23T22:19:10.202Z,12.00
2017-10-23T22:21:37.671Z,12.00
2017-10-23T22:24:05.143Z,12.00
2017-10-23T22:26:32.614Z,12.00
2017-10-23T22:29:00.848Z,12.00
2017-10-23T22:31:28.306Z,12.00
2017-10-23T22:33:55.778Z,12.00
2017-10-23T22:36:23.235Z,11.90
2017-10-23T22:38:50.794Z,11.90
2017-10-23T22:41:18.250Z,11.90
2017-10-23T22:43:45.708Z,11.90
2017-10-23T22:46:13.174Z,11.90
2017-10-23T22:48:40.630Z,11.90
2017-10-23T22:51:08.097Z,11.80
2017-10-23T22:53:35.564Z,11.80
2017-10-23T22:56:03.214Z,11.70
2017-10-23T22:58:31.449Z,11.70
2017-10-23T23:00:58.942Z,11.70
2017-10-23T23:03:26.405Z,11.60
2017-10-23T23:05:53.888Z,11.50
2017-10-23T23:08:22.097Z,11.40
2017-10-23T23:10:49.607Z,11.30
2017-10-23T23:13:17.072Z,11.40
2017-10-23T23:15:44.544Z,11.40
2017-10-23T23:18:12.755Z,11.40
2017-10-23T23:20:40.219Z,11.30
2017-10-23T23:23:07.677Z,11.40
2017-10-23T23:25:35.146Z,11.50
2017-10-23T23:28:02.603Z,11.50
2017-10-23T23:30:30.075Z,11.50
2017-10-23T23:32:57.536Z,11.60
2017-10-23T23:35:25.030Z,11.60
2017-10-23T23:37:53.260Z,11.70
2017-10-23T23:40:20.711Z,11.70
2017-10-23T23:42:48.179Z,11.80
2017-10-23T23:45:15.639Z,11.70
2017-10-23T23:47:43.106Z,11.70
2017-10-23T23:50:10.576Z,11.70
2017-10-23T23:52:38.068Z,11.70
2017-10-23T23:55:05.543Z,11.60
2017-10-23T23:57:33.004Z,11.60
